Time;durP1;ratioP1;P1;durP2;ratioP2;P2;SDS_P1;SDS_P2;PMS_P1;PMS_P2;Temp;Humidity;BMP_temperature;BMP_pressure;BME280_temperature;BME280_humidity;BME280_pressure;Samples;Min_cycle;Max_cycle;Signal;HPM_P1;HPM_P2
2022/11/05 00:10:22;;;;;;;1.20;1.03;;;;;;;12.82;83.70;95129.44;5113061;28;20470;-53
2022/11/05 00:18:24;;;;;;;0.57;0.50;;;;;;;12.97;82.99;95137.19;5112958;28;20425;-53
2022/11/05 00:20:54;;;;;;;0.83;0.83;;;;;;;12.56;85.96;95136.16;5112938;28;20428;-53
2022/11/05 00:26:10;;;;;;;2.50;0.40;;;;;;;12.72;87.93;95124.25;5112624;28;20475;-55
2022/11/05 00:28:42;;;;;;;0.40;0.30;;;;;;;12.89;85.96;95123.75;5112863;28;20436;-54
2022/11/05 00:31:13;;;;;;;1.53;1.43;;;;;;;13.07;83.73;95126.44;5112948;28;20462;-55
2022/11/05 00:33:43;;;;;;;0.50;0.50;;;;;;;13.11;82.47;95121.31;5111433;28;20477;-53
2022/11/05 00:36:13;;;;;;;1.77;0.83;;;;;;;13.18;82.13;95113.78;5112623;28;20450;-54
2022/11/05 00:38:42;;;;;;;0.50;0.47;;;;;;;13.29;81.39;95120.50;5112671;28;20926;-54
2022/11/05 00:41:10;;;;;;;3.13;0.80;;;;;;;12.02;85.12;94980.59;5112979;28;20434;-53
2022/11/05 00:46:24;;;;;;;0.50;0.50;;;;;;;12.23;94.96;95137.09;5111517;28;20530;-53
2022/11/05 00:51:40;;;;;;;2.23;0.73;;;;;;;11.91;93.63;95140.38;5112566;28;20417;-53
2022/11/05 00:54:09;;;;;;;1.23;1.20;;;;;;;11.75;95.30;95134.41;5112070;28;20439;-54
2022/11/05 00:56:37;;;;;;;2.10;1.03;;;;;;;11.75;94.85;95133.63;5115206;28;20437;-54
2022/11/05 00:59:06;;;;;;;0.80;0.80;;;;;;;11.74;93.18;95132.06;5116807;28;20426;-54
2022/11/05 01:01:35;;;;;;;1.00;1.00;;;;;;;11.32;95.18;95141.41;5116361;28;20430;-54
2022/11/05 01:04:03;;;;;;;0.80;0.80;;;;;;;11.44;95.66;95144.47;5117090;27;20854;-54
2022/11/05 01:06:32;;;;;;;1.63;0.90;;;;;;;11.97;88.46;95132.06;5116909;28;20871;-54
2022/11/05 01:09:02;;;;;;;0.63;0.60;;;;;;;11.56;91.24;95136.16;5116590;28;20434;-54
2022/11/05 01:11:34;;;;;;;1.23;1.23;;;;;;;11.61;90.79;95130.81;5116823;28;20519;-54
2022/11/05 01:14:03;;;;;;;1.17;1.07;;;;;;;11.88;87.00;95130.31;5116439;28;20557;-54
2022/11/05 01:16:32;;;;;;;0.40;0.30;;;;;;;11.81;86.78;95109.41;5116416;28;20437;-54
2022/11/05 01:19:02;;;;;;;2.40;1.23;;;;;;;12.09;85.51;95132.44;5116491;28;20465;-54
2022/11/05 01:21:30;;;;;;;0.67;0.67;;;;;;;11.77;90.16;95129.63;5116328;28;20425;-54
2022/11/05 01:23:59;;;;;;;1.90;1.13;;;;;;;11.98;88.51;95120.38;5116200;28;20924;-54
2022/11/05 01:26:29;;;;;;;0.80;0.80;;;;;;;11.57;92.41;95118.34;5116007;28;20474;-54
2022/11/05 01:28:59;;;;;;;0.60;0.50;;;;;;;11.95;88.46;95118.28;5116552;28;20509;-54
2022/11/05 01:31:28;;;;;;;0.60;0.60;;;;;;;11.76;91.64;95119.28;5116089;28;20423;-53
2022/11/05 01:33:57;;;;;;;22.37;2.17;;;;;;;11.82;88.49;95116.28;5115948;28;20559;-53
2022/11/05 01:36:25;;;;;;;0.83;0.83;;;;;;;11.75;88.68;95107.88;5116289;28;20788;-53
2022/11/05 01:38:54;;;;;;;0.50;0.47;;;;;;;11.62;88.73;95099.72;5115929;28;20426;-53
2022/11/05 01:41:22;;;;;;;6.93;1.23;;;;;;;11.56;89.02;95093.66;5115540;28;20501;-53
2022/11/05 01:43:55;;;;;;;1.57;1.30;;;;;;;11.59;89.98;95084.34;5115731;28;20432;-53
2022/11/05 01:46:28;;;;;;;1.50;1.50;;;;;;;10.59;89.73;94951.63;5115861;28;20433;-52
2022/11/05 01:49:01;;;;;;;0.73;0.60;;;;;;;11.66;86.95;95082.19;5116022;28;20429;-52
2022/11/05 01:51:31;;;;;;;1.83;1.73;;;;;;;11.85;86.18;95081.22;5115695;28;21137;-52
2022/11/05 01:54:02;;;;;;;0.47;0.40;;;;;;;11.45;91.70;95085.03;5115906;28;20464;-54
2022/11/05 01:56:34;;;;;;;2.30;2.20;;;;;;;11.76;87.47;95087.44;5115586;28;20782;-52
2022/11/05 01:59:11;;;;;;;0.60;0.60;;;;;;;11.82;86.45;95095.03;5115642;28;20433;-52
2022/11/05 02:01:39;;;;;;;0.73;0.57;;;;;;;11.80;84.89;95091.88;5115274;28;20439;-53
2022/11/05 02:04:11;;;;;;;0.77;0.77;;;;;;;11.72;88.32;95099.66;5115456;28;20422;-53
2022/11/05 02:06:45;;;;;;;2.40;0.80;;;;;;;11.75;88.16;95089.28;5114560;28;20429;-53
2022/11/05 02:09:18;;;;;;;0.73;0.73;;;;;;;11.78;86.80;95088.72;5114701;28;20455;-53
2022/11/05 02:11:47;;;;;;;1.13;1.03;;;;;;;11.83;85.21;95086.00;5115117;27;20428;-53
2022/11/05 02:14:20;;;;;;;2.20;1.70;;;;;;;11.72;86.70;95078.41;5115178;28;20483;-52
2022/11/05 02:16:53;;;;;;;1.57;1.47;;;;;;;11.55;87.71;95067.44;5114899;28;20426;-52
2022/11/05 02:19:51;;;;;;;1.17;1.07;;;;;;;11.70;87.66;95076.06;5114741;28;20437;-52
2022/11/05 02:22:38;;;;;;;0.80;0.40;;;;;;;11.71;88.17;95071.53;5114638;28;20426;-52
2022/11/05 02:25:27;;;;;;;0.50;0.40;;;;;;;11.88;83.98;95072.69;5114813;28;20424;-52
2022/11/05 02:28:13;;;;;;;0.83;0.83;;;;;;;11.80;84.49;95065.34;5113437;28;20433;-53
2022/11/05 02:30:48;;;;;;;0.80;0.80;;;;;;;11.77;83.90;95068.53;5114865;28;20430;-53
2022/11/05 02:33:27;;;;;;;0.50;0.40;;;;;;;11.78;84.89;95072.00;5114732;28;20499;-53
2022/11/05 02:36:07;;;;;;;0.80;0.80;;;;;;;11.31;87.38;95031.03;5114775;28;20440;-53
2022/11/05 02:38:40;;;;;;;4.73;3.13;;;;;;;11.50;87.82;95076.25;5114737;28;20444;-52
2022/11/05 02:41:18;;;;;;;0.60;0.40;;;;;;;11.43;88.98;95060.63;5114614;28;20429;-52
2022/11/05 02:43:57;;;;;;;1.90;1.10;;;;;;;11.51;88.31;95069.06;5114333;28;20913;-52
2022/11/05 02:46:35;;;;;;;0.60;0.50;;;;;;;11.45;88.59;95078.94;5114135;28;20450;-52
2022/11/05 02:49:14;;;;;;;0.83;0.70;;;;;;;11.53;88.01;95075.69;5114563;28;20924;-53
2022/11/05 02:51:52;;;;;;;0.40;0.40;;;;;;;11.51;86.24;95072.50;5114506;28;20442;-52
2022/11/05 02:54:26;;;;;;;2.50;0.80;;;;;;;11.34;86.09;95072.13;5114174;28;20460;-53
2022/11/05 02:56:59;;;;;;;1.90;0.90;;;;;;;11.00;90.63;95080.13;5114429;27;20996;-52
2022/11/05 02:59:27;;;;;;;1.13;0.73;;;;;;;11.23;89.30;95084.69;5114031;28;20924;-52
2022/11/05 03:01:58;;;;;;;0.67;0.50;;;;;;;11.20;87.62;95065.91;5113594;28;20425;-53
2022/11/05 03:04:28;;;;;;;2.63;0.70;;;;;;;11.40;86.43;95082.44;5114136;27;20535;-53
2022/11/05 03:07:17;;;;;;;2.50;1.23;;;;;;;11.35;87.67;95077.19;5114098;28;20822;-53
2022/11/05 03:10:09;;;;;;;0.60;0.60;;;;;;;11.21;87.86;95084.19;5113751;28;20444;-53
2022/11/05 03:12:48;;;;;;;1.63;1.03;;;;;;;11.49;86.55;95085.25;5113060;28;20440;-53
2022/11/05 03:15:26;;;;;;;4.73;0.83;;;;;;;11.36;86.14;95081.41;5113773;28;20989;-53
2022/11/05 03:18:04;;;;;;;0.50;0.40;;;;;;;11.37;86.19;95079.53;5113513;28;20445;-52
2022/11/05 03:20:38;;;;;;;1.43;0.60;;;;;;;11.33;86.94;95083.84;5113860;28;20420;-53
2022/11/05 03:23:12;;;;;;;2.30;2.30;;;;;;;11.00;86.54;95019.13;5113854;28;20449;-53
2022/11/05 03:25:46;;;;;;;0.80;0.80;;;;;;;11.43;85.48;95076.53;5113544;28;20480;-53
2022/11/05 03:28:17;;;;;;;3.20;0.50;;;;;;;11.34;86.02;95077.44;5113794;28;20431;-53
2022/11/05 03:30:48;;;;;;;3.17;0.80;;;;;;;11.27;85.37;95077.78;5113717;28;20424;-53
2022/11/05 03:33:21;;;;;;;0.80;0.73;;;;;;;11.12;84.53;95063.84;5113433;27;20932;-53
2022/11/05 03:35:53;;;;;;;0.70;0.70;;;;;;;11.14;86.12;95074.97;5113659;28;20425;-53
2022/11/05 03:38:26;;;;;;;1.90;1.37;;;;;;;10.42;94.48;95047.41;5113164;28;20482;-53
2022/11/05 03:40:57;;;;;;;0.90;0.60;;;;;;;10.95;90.59;95069.56;5113121;28;20637;-53
2022/11/05 03:43:30;;;;;;;1.37;1.27;;;;;;;11.00;86.92;95072.16;5113490;28;20808;-53
2022/11/05 03:46:03;;;;;;;0.40;0.30;;;;;;;11.00;88.69;95068.72;5113468;28;20418;-53
2022/11/05 03:48:38;;;;;;;1.50;1.40;;;;;;;11.12;86.62;95056.69;5113620;28;20431;-53
2022/11/05 03:51:12;;;;;;;0.60;0.60;;;;;;;11.41;83.05;95068.09;5113058;28;20984;-53
2022/11/05 03:53:46;;;;;;;1.67;0.43;;;;;;;11.43;81.76;95062.50;5113133;28;20592;-53
2022/11/05 03:56:21;;;;;;;0.40;0.30;;;;;;;11.46;80.72;95048.66;5113243;28;20453;-53
2022/11/05 03:58:49;;;;;;;0.77;0.77;;;;;;;11.55;80.56;95070.88;5112858;28;20425;-54
2022/11/05 04:01:25;;;;;;;0.40;0.30;;;;;;;11.10;83.33;95066.78;5113107;28;20428;-53
2022/11/05 04:03:55;;;;;;;4.00;0.90;;;;;;;10.91;90.19;95073.81;5112751;28;20508;-53
2022/11/05 04:14:41;;;;;;;1.07;0.33;;;;;;;11.69;80.29;95079.78;5112820;28;20808;-53
2022/11/05 04:17:09;;;;;;;1.80;0.60;;;;;;;11.54;80.69;95089.72;5112558;28;20944;-54
2022/11/05 04:25:14;;;;;;;4.10;0.87;;;;;;;11.62;78.44;95089.13;5112405;28;20449;-54
2022/11/05 04:27:43;;;;;;;0.97;0.97;;;;;;;11.44;78.63;95083.44;5112361;28;20930;-54
2022/11/05 04:30:18;;;;;;;1.10;0.73;;;;;;;11.71;79.06;95090.94;5111671;28;20428;-54
2022/11/05 04:33:01;;;;;;;1.13;0.60;;;;;;;11.37;80.81;95096.25;5111670;28;20439;-53
2022/11/05 04:35:33;;;;;;;1.07;1.07;;;;;;;11.57;79.15;95097.13;5111751;28;20464;-53
2022/11/05 04:38:01;;;;;;;0.70;0.50;;;;;;;11.48;78.59;95095.06;5112160;28;20432;-53
2022/11/05 04:40:30;;;;;;;1.53;0.50;;;;;;;10.93;77.72;95002.72;5112175;28;20428;-53
2022/11/05 04:42:59;;;;;;;13.53;1.80;;;;;;;11.51;78.96;95098.25;5112149;28;20433;-53
2022/11/05 04:45:29;;;;;;;0.87;0.87;;;;;;;11.06;79.28;95044.53;5112246;28;20429;-54
2022/11/05 04:47:57;;;;;;;1.60;0.43;;;;;;;11.33;80.89;95103.16;5112051;28;20432;-54
2022/11/05 04:50:26;;;;;;;1.93;1.37;;;;;;;11.01;82.74;95102.13;5111091;28;20445;-54
2022/11/05 04:52:56;;;;;;;0.83;0.83;;;;;;;11.03;83.72;95105.31;5112323;28;20430;-53
2022/11/05 04:55:24;;;;;;;1.57;1.47;;;;;;;10.65;82.94;95064.47;5112264;28;20476;-53
2022/11/05 04:57:54;;;;;;;2.37;0.67;;;;;;;10.79;84.44;95113.13;5112106;28;21007;-53
2022/11/05 05:00:23;;;;;;;1.60;1.50;;;;;;;10.19;99.23;95114.25;5111998;28;20438;-54
2022/11/05 05:02:52;;;;;;;0.50;0.50;;;;;;;10.61;92.09;95116.44;5112225;28;20511;-53
2022/11/05 05:05:21;;;;;;;2.20;2.10;;;;;;;10.60;90.24;95130.75;5111826;28;20428;-53
2022/11/05 05:07:50;;;;;;;4.43;1.10;;;;;;;10.38;92.16;95109.13;5110956;28;20492;-53
2022/11/05 05:10:20;;;;;;;0.50;0.50;;;;;;;10.21;97.20;95128.03;5112495;28;20420;-53
2022/11/05 05:12:48;;;;;;;0.90;0.87;;;;;;;9.91;100.00;95139.47;5112154;28;20432;-53
2022/11/05 05:15:16;;;;;;;1.80;0.80;;;;;;;10.20;99.68;95140.47;5111810;28;20502;-53
2022/11/05 05:17:49;;;;;;;4.73;1.90;;;;;;;9.96;100.00;95150.06;5111178;28;20779;-53
2022/11/05 05:23:04;;;;;;;0.60;0.60;;;;;;;10.13;100.00;95152.41;5111668;28;20436;-53
2022/11/05 05:25:33;;;;;;;1.10;1.03;;;;;;;10.03;100.00;95163.00;5111244;28;20423;-54
2022/11/05 05:28:01;;;;;;;2.70;1.23;;;;;;;9.29;100.00;95136.38;5111691;28;20448;-53
2022/11/05 05:30:30;;;;;;;2.50;1.00;;;;;;;9.50;100.00;95149.34;5111759;28;20430;-53
2022/11/05 05:33:02;;;;;;;1.13;1.13;;;;;;;9.83;100.00;95163.84;5111620;28;20428;-54
2022/11/05 05:35:31;;;;;;;4.20;2.07;;;;;;;9.23;100.00;95166.53;5112026;28;20474;-54
2022/11/05 05:37:59;;;;;;;2.60;2.40;;;;;;;9.06;100.00;95168.66;5111792;28;20943;-53
2022/11/05 05:40:27;;;;;;;1.80;1.70;;;;;;;9.03;100.00;95175.25;5111687;28;20758;-54
2022/11/05 05:42:57;;;;;;;0.83;0.83;;;;;;;9.88;100.00;95173.63;5114541;28;20429;-54
2022/11/05 05:45:25;;;;;;;0.80;0.80;;;;;;;9.95;100.00;95167.00;5115684;28;20417;-54
2022/11/05 05:47:55;;;;;;;0.80;0.80;;;;;;;10.70;96.86;95181.06;5115647;28;20435;-54
2022/11/05 05:50:24;;;;;;;0.50;0.50;;;;;;;10.53;95.46;95167.34;5115523;28;20429;-54
2022/11/05 05:52:52;;;;;;;0.40;0.40;;;;;;;10.66;92.78;95177.34;5115563;28;20435;-54
2022/11/05 05:55:20;;;;;;;1.27;1.17;;;;;;;10.56;92.32;95188.00;5115117;28;20460;-53
2022/11/05 05:57:49;;;;;;;11.40;1.40;;;;;;;10.48;93.24;95185.91;5115028;28;20420;-53
2022/11/05 06:00:18;;;;;;;1.00;1.00;;;;;;;10.44;93.38;95195.47;5115143;28;20424;-54
2022/11/05 06:02:47;;;;;;;0.60;0.60;;;;;;;10.46;93.92;95190.69;5115433;28;20450;-53
2022/11/05 06:05:15;;;;;;;0.67;0.67;;;;;;;10.84;91.94;95192.66;5115413;28;20436;-54
2022/11/05 06:07:44;;;;;;;0.87;0.67;;;;;;;10.54;95.78;95184.84;5115021;28;20427;-54
2022/11/05 06:10:12;;;;;;;0.50;0.40;;;;;;;10.62;95.86;95184.28;5115319;28;20417;-53
2022/11/05 06:12:40;;;;;;;1.50;1.40;;;;;;;11.01;94.60;95194.94;5114628;28;20992;-54
2022/11/05 06:15:09;;;;;;;1.00;1.00;;;;;;;11.30;91.79;95199.25;5115039;27;20968;-54
2022/11/05 06:17:39;;;;;;;0.40;0.30;;;;;;;11.63;89.56;95207.50;5114862;28;20433;-54
2022/11/05 06:20:08;;;;;;;2.67;2.57;;;;;;;11.65;89.58;95194.75;5114624;28;20426;-54
2022/11/05 06:22:37;;;;;;;1.27;0.60;;;;;;;11.54;89.02;95202.00;5114946;28;20435;-53
2022/11/05 06:25:06;;;;;;;0.83;0.83;;;;;;;11.67;89.23;95201.34;5114793;28;20919;-53
2022/11/05 06:27:38;;;;;;;6.43;2.10;;;;;;;11.13;89.84;95188.22;5114654;28;20484;-53
2022/11/05 06:30:08;;;;;;;1.70;1.60;;;;;;;11.88;88.33;95204.66;5114363;28;20428;-54
2022/11/05 06:32:36;;;;;;;2.93;1.30;;;;;;;11.16;87.42;95219.50;5114516;28;20453;-54
2022/11/05 06:35:06;;;;;;;0.93;0.93;;;;;;;11.98;83.66;95215.19;5114409;28;20466;-54
2022/11/05 06:37:34;;;;;;;0.93;0.93;;;;;;;12.61;79.27;95214.00;5114184;28;20947;-54
2022/11/05 06:40:03;;;;;;;2.17;2.03;;;;;;;12.90;77.24;95203.28;5114097;28;20435;-54
2022/11/05 06:42:31;;;;;;;0.53;0.50;;;;;;;13.46;73.80;95202.53;5114035;28;20432;-55
2022/11/05 06:44:59;;;;;;;1.57;1.47;;;;;;;13.49;73.36;95208.03;5114363;27;20432;-55
2022/11/05 06:47:27;;;;;;;3.70;0.97;;;;;;;13.69;71.42;95196.28;5114496;28;20460;-56
2022/11/05 06:49:56;;;;;;;1.27;1.27;;;;;;;13.97;70.70;95193.41;5114216;28;21039;-56
2022/11/05 06:52:30;;;;;;;2.63;2.43;;;;;;;14.52;69.04;95188.19;5113903;28;20437;-56
2022/11/05 06:54:58;;;;;;;1.13;1.13;;;;;;;15.00;67.56;95188.53;5113258;28;20484;-56
2022/11/05 06:57:26;;;;;;;0.90;0.90;;;;;;;15.06;66.11;95166.75;5114186;28;20430;-56
2022/11/05 06:59:55;;;;;;;1.70;1.60;;;;;;;15.31;66.33;95183.28;5114108;28;20594;-57
2022/11/05 07:02:30;;;;;;;1.90;1.80;;;;;;;15.47;64.72;95161.31;5113741;28;20491;-58
2022/11/05 07:04:58;;;;;;;2.90;2.80;;;;;;;15.75;64.29;95172.66;5114339;27;20427;-59
2022/11/05 07:07:28;;;;;;;4.23;2.17;;;;;;;16.34;61.98;95172.19;5113855;28;20429;-60
2022/11/05 07:09:56;;;;;;;0.80;0.80;;;;;;;16.53;60.05;95171.97;5112960;27;20822;-60
2022/11/05 07:12:24;;;;;;;3.30;1.73;;;;;;;16.48;60.02;95169.41;5114060;28;20435;-59
2022/11/05 07:14:53;;;;;;;1.33;1.23;;;;;;;16.47;60.41;95167.81;5112715;28;20416;-59
2022/11/05 07:17:22;;;;;;;6.03;1.30;;;;;;;16.19;60.43;95143.16;5113762;28;20475;-58
2022/11/05 07:19:50;;;;;;;2.93;1.83;;;;;;;16.39;60.28;95161.34;5113830;28;20439;-56
2022/11/05 07:22:18;;;;;;;5.03;0.93;;;;;;;17.09;59.13;95160.47;5113524;28;20923;-56
2022/11/05 07:24:49;;;;;;;1.53;1.40;;;;;;;18.07;57.12;95155.19;5113739;28;20420;-56
2022/11/05 07:27:17;;;;;;;0.83;0.70;;;;;;;17.83;56.40;95160.31;5113254;28;20486;-56
2022/11/05 07:29:45;;;;;;;0.70;0.70;;;;;;;18.06;55.51;95159.00;5113533;28;20908;-55
2022/11/05 07:32:14;;;;;;;1.33;1.30;;;;;;;17.93;55.79;95160.78;5113530;28;20786;-55
2022/11/05 07:34:42;;;;;;;0.70;0.70;;;;;;;19.08;54.37;95136.28;5113696;28;20432;-56
2022/11/05 07:37:10;;;;;;;1.50;0.60;;;;;;;19.83;52.25;95142.50;5113571;28;20812;-56
2022/11/05 07:39:38;;;;;;;1.07;1.00;;;;;;;19.24;52.17;95139.16;5113434;28;20428;-56
2022/11/05 07:42:12;;;;;;;6.97;2.33;;;;;;;19.32;53.13;95132.94;5113345;28;20427;-56
2022/11/05 07:44:40;;;;;;;1.33;1.23;;;;;;;19.51;51.84;95133.28;5113073;28;20424;-56
2022/11/05 07:47:08;;;;;;;1.87;1.77;;;;;;;19.54;51.59;95132.63;5113028;28;20430;-56
2022/11/05 07:49:36;;;;;;;3.40;3.20;;;;;;;19.63;51.72;95131.44;5112730;28;20429;-57
2022/11/05 07:52:05;;;;;;;1.77;1.67;;;;;;;20.02;50.31;95127.41;5112557;28;20950;-57
2022/11/05 07:54:33;;;;;;;7.20;1.90;;;;;;;19.61;51.55;95130.97;5113223;28;20806;-56
2022/11/05 07:57:02;;;;;;;1.23;1.13;;;;;;;19.96;51.23;95115.28;5112816;28;20483;-56
2022/11/05 07:59:31;;;;;;;3.17;1.50;;;;;;;20.74;50.38;95115.16;5112927;28;20424;-55
2022/11/05 08:02:00;;;;;;;0.80;0.77;;;;;;;20.92;48.59;95100.34;5112773;28;20435;-55
2022/11/05 08:04:28;;;;;;;2.53;2.43;;;;;;;21.12;48.07;95093.25;5112524;28;20416;-54
2022/11/05 08:06:57;;;;;;;2.57;2.37;;;;;;;20.79;47.95;95114.94;5112521;28;20526;-54
2022/11/05 08:09:25;;;;;;;8.70;3.13;;;;;;;20.65;48.23;95111.78;5113061;28;20431;-54
2022/11/05 08:11:53;;;;;;;16.17;1.30;;;;;;;21.85;46.45;95104.53;5112888;27;20479;-54
2022/11/05 08:14:30;;;;;;;1.67;1.60;;;;;;;22.07;45.88;95093.19;5112644;28;20864;-53
2022/11/05 08:16:59;;;;;;;2.10;2.00;;;;;;;22.42;44.95;95121.09;5112611;28;20502;-53
2022/11/05 08:19:27;;;;;;;1.80;1.70;;;;;;;21.44;45.75;95092.25;5111680;28;20434;-52
2022/11/05 08:21:55;;;;;;;2.30;2.20;;;;;;;22.11;45.25;95097.53;5112211;28;20451;-53
2022/11/05 08:24:24;;;;;;;1.93;1.83;;;;;;;22.42;44.34;95106.78;5112873;28;20432;-53
2022/11/05 08:26:53;;;;;;;1.47;1.37;;;;;;;22.91;43.96;95108.00;5112037;28;20475;-53
2022/11/05 08:29:21;;;;;;;1.20;1.10;;;;;;;23.33;43.51;95098.09;5112791;28;20416;-52
2022/11/05 08:31:51;;;;;;;3.70;2.00;;;;;;;22.07;45.23;95101.28;5112556;28;20463;-52
2022/11/05 08:34:19;;;;;;;1.70;1.10;;;;;;;23.31;44.02;95092.25;5112216;28;20754;-52
2022/11/05 08:36:47;;;;;;;2.50;2.40;;;;;;;23.15;43.21;95096.94;5112040;28;20471;-51
2022/11/05 08:39:17;;;;;;;5.50;1.87;;;;;;;23.22;43.41;95080.09;5112434;28;20428;-51
2022/11/05 08:41:46;;;;;;;1.57;1.47;;;;;;;22.88;43.49;95091.69;5111793;28;20460;-50
2022/11/05 08:44:14;;;;;;;1.30;1.20;;;;;;;24.08;42.23;95083.34;5112080;28;20435;-52
2022/11/05 08:46:42;;;;;;;1.07;1.03;;;;;;;24.74;41.57;95062.00;5112223;28;20420;-51
2022/11/05 08:49:12;;;;;;;1.70;1.40;;;;;;;25.51;39.85;95075.09;5112723;28;20428;-51
2022/11/05 08:51:40;;;;;;;9.47;2.47;;;;;;;25.75;39.53;95074.59;5111947;28;20440;-52
2022/11/05 08:54:09;;;;;;;1.80;1.70;;;;;;;25.46;39.49;95078.13;5112534;28;20432;-53
2022/11/05 08:56:37;;;;;;;8.23;1.40;;;;;;;25.10;39.63;95045.09;5111830;28;20880;-52
2022/11/05 08:59:06;;;;;;;1.40;1.30;;;;;;;25.82;39.06;95070.03;5112244;28;20433;-52
2022/11/05 09:01:34;;;;;;;1.30;0.77;;;;;;;26.06;38.85;95067.94;5111772;28;20440;-52
2022/11/05 09:04:03;;;;;;;2.50;1.63;;;;;;;25.93;39.44;95064.72;5111765;28;20790;-52
2022/11/05 09:06:33;;;;;;;4.43;1.27;;;;;;;25.97;38.92;95065.53;5111925;28;20432;-52
2022/11/05 09:09:01;;;;;;;1.43;1.33;;;;;;;25.80;38.58;95052.56;5112218;28;20424;-52
2022/11/05 09:11:29;;;;;;;1.57;1.27;;;;;;;25.82;38.63;95059.19;5111171;28;20431;-52
2022/11/05 09:14:18;;;;;;;1.20;1.10;;;;;;;26.66;38.36;95055.69;5112060;28;20428;-52
2022/11/05 09:16:46;;;;;;;1.77;1.67;;;;;;;27.47;36.12;95053.47;5112610;28;20471;-52
2022/11/05 09:19:14;;;;;;;1.83;1.73;;;;;;;26.61;36.57;95036.22;5116118;28;20553;-51
2022/11/05 09:21:44;;;;;;;1.43;1.33;;;;;;;25.64;38.55;95050.06;5116262;28;20842;-54
2022/11/05 09:24:12;;;;;;;1.77;1.67;;;;;;;26.30;38.44;95041.03;5115627;28;20424;-53
2022/11/05 09:26:40;;;;;;;0.80;0.80;;;;;;;26.31;37.93;95037.13;5115646;28;21155;-53
2022/11/05 09:29:09;;;;;;;1.90;1.80;;;;;;;26.40;37.54;95039.56;5115878;28;20916;-53
2022/11/05 09:31:42;;;;;;;1.10;1.03;;;;;;;27.95;35.89;95007.69;5116216;28;20424;-53
2022/11/05 09:34:10;;;;;;;1.20;1.20;;;;;;;28.43;35.45;95027.22;5116230;27;20443;-53
2022/11/05 09:36:38;;;;;;;1.13;0.83;;;;;;;26.91;37.01;95028.66;5115667;28;20506;-53
2022/11/05 09:39:08;;;;;;;0.87;0.87;;;;;;;26.43;37.67;95020.56;5115085;28;20424;-54
2022/11/05 09:41:39;;;;;;;4.00;2.27;;;;;;;26.34;38.59;95022.81;5115848;28;20424;-53
2022/11/05 09:44:13;;;;;;;0.60;0.60;;;;;;;26.73;38.45;95016.88;5115652;28;20426;-53
2022/11/05 09:46:46;;;;;;;1.93;1.00;;;;;;;27.04;38.44;94997.28;5115698;28;20431;-52
2022/11/05 09:49:24;;;;;;;1.30;1.10;;;;;;;26.84;38.31;94955.22;5115605;27;20427;-51
2022/11/05 09:51:54;;;;;;;1.30;1.20;;;;;;;26.60;37.86;95012.91;5115578;27;20435;-52
2022/11/05 09:54:28;;;;;;;0.93;0.90;;;;;;;26.86;37.78;95001.84;5115416;28;20439;-52
2022/11/05 09:56:56;;;;;;;4.00;1.30;;;;;;;27.45;37.49;94998.63;5115267;28;20471;-52
2022/11/05 09:59:43;;;;;;;1.13;1.03;;;;;;;27.82;36.75;94978.47;5115404;28;20892;-52
2022/11/05 10:02:19;;;;;;;1.17;1.07;;;;;;;27.95;36.23;94993.28;5115225;27;20440;-53
2022/11/05 10:04:58;;;;;;;2.30;1.33;;;;;;;27.02;37.53;94996.84;5114947;28;20419;-52
2022/11/05 10:07:40;;;;;;;1.70;1.60;;;;;;;28.15;36.42;94989.06;5115055;27;20432;-54
2022/11/05 10:10:26;;;;;;;0.70;0.70;;;;;;;28.50;35.99;94860.91;5115182;28;20419;-58
2022/11/05 10:12:59;;;;;;;2.00;1.07;;;;;;;28.14;36.26;94977.38;5115285;28;20442;-53
2022/11/05 10:15:30;;;;;;;1.53;1.23;;;;;;;27.41;37.19;94975.28;5115164;28;20427;-53
2022/11/05 10:18:03;;;;;;;3.53;1.23;;;;;;;29.05;35.84;94966.72;5114950;28;20475;-53
2022/11/05 10:20:33;;;;;;;2.60;1.13;;;;;;;29.35;34.88;94956.09;5115257;27;20439;-53
2022/11/05 10:23:09;;;;;;;3.00;1.30;;;;;;;28.94;35.51;94970.25;5114799;27;20438;-53
2022/11/05 10:25:43;;;;;;;0.80;0.80;;;;;;;29.30;35.05;94948.31;5114750;28;20532;-53
2022/11/05 10:28:16;;;;;;;0.67;0.60;;;;;;;28.77;35.42;94951.22;5114022;28;20434;-53
2022/11/05 10:30:46;;;;;;;2.00;0.90;;;;;;;29.75;34.67;94946.53;5114455;28;20498;-53
2022/11/05 10:33:25;;;;;;;0.77;0.77;;;;;;;30.31;34.64;94943.38;5114867;28;20522;-53
2022/11/05 10:35:57;;;;;;;1.07;1.07;;;;;;;29.09;35.46;94934.75;5114982;28;20797;-53
2022/11/05 10:38:26;;;;;;;6.53;1.20;;;;;;;30.11;34.48;94937.69;5114438;28;20532;-53
2022/11/05 10:41:09;;;;;;;0.80;0.80;;;;;;;29.62;34.80;94923.56;5114405;28;20434;-53
2022/11/05 10:43:44;;;;;;;4.80;1.03;;;;;;;29.85;34.59;94932.81;5114402;28;20430;-53
2022/11/05 10:46:25;;;;;;;0.50;0.50;;;;;;;30.73;33.17;94928.53;5114461;28;20933;-54
2022/11/05 10:49:06;;;;;;;0.80;0.80;;;;;;;30.69;33.38;94920.34;5113876;28;20438;-54
2022/11/05 10:51:35;;;;;;;0.73;0.70;;;;;;;31.21;32.57;94917.44;5114512;28;20419;-52
2022/11/05 10:54:11;;;;;;;1.50;1.40;;;;;;;31.18;32.57;94912.78;5114379;28;20434;-52
2022/11/05 10:56:41;;;;;;;0.67;0.67;;;;;;;29.17;35.00;94892.63;5114290;28;20954;-53
2022/11/05 10:59:21;;;;;;;4.70;4.30;;;;;;;28.12;35.79;94895.25;5114245;28;20478;-58
2022/11/05 11:01:56;;;;;;;1.30;1.00;;;;;;;27.97;36.44;94890.16;5113894;27;20431;-57
2022/11/05 11:04:27;;;;;;;3.37;1.60;;;;;;;29.10;35.37;94879.75;5114253;28;20545;-57
2022/11/05 11:07:04;;;;;;;1.03;1.03;;;;;;;30.44;32.88;94878.81;5113944;28;20519;-56
2022/11/05 11:09:35;;;;;;;0.90;0.90;;;;;;;30.92;33.48;94869.69;5113140;28;20507;-56
2022/11/05 11:12:13;;;;;;;5.07;1.07;;;;;;;29.33;33.90;94880.06;5113883;28;20428;-57
2022/11/05 11:14:42;;;;;;;1.53;1.43;;;;;;;29.09;33.23;94871.97;5113933;28;20899;-57
2022/11/05 11:17:25;;;;;;;0.70;0.70;;;;;;;28.85;33.07;94865.47;5113530;28;20625;-57
2022/11/05 11:20:20;;;;;;;0.60;0.60;;;;;;;29.83;32.29;94850.47;5113721;28;20422;-58
2022/11/05 11:23:11;;;;;;;2.43;1.57;;;;;;;28.58;32.48;94861.66;5114021;28;20428;-58
2022/11/05 11:25:47;;;;;;;1.90;1.67;;;;;;;29.90;31.68;94853.16;5113309;28;20471;-57
2022/11/05 11:28:22;;;;;;;3.40;1.00;;;;;;;29.41;32.03;94842.56;5113434;28;20980;-57
2022/11/05 11:30:55;;;;;;;1.30;1.20;;;;;;;29.08;31.61;94846.66;5113447;28;20483;-57
2022/11/05 11:33:27;;;;;;;0.67;0.67;;;;;;;28.78;31.13;94838.22;5113454;28;20772;-57
2022/11/05 11:35:56;;;;;;;1.53;0.70;;;;;;;27.60;32.11;94841.53;5113576;27;20434;-57
2022/11/05 11:38:29;;;;;;;0.60;0.50;;;;;;;28.56;31.49;94839.47;5113202;28;20474;-57
2022/11/05 11:41:07;;;;;;;1.63;0.83;;;;;;;27.64;32.36;94834.91;5112991;28;20957;-57
2022/11/05 11:43:42;;;;;;;1.20;1.17;;;;;;;27.78;31.98;94823.22;5112788;28;20434;-58
2022/11/05 11:46:14;;;;;;;1.83;1.63;;;;;;;26.81;33.23;94822.72;5113081;28;20927;-57
2022/11/05 11:48:46;;;;;;;1.73;1.10;;;;;;;26.12;33.55;94825.50;5113277;28;20423;-57
2022/11/05 11:51:22;;;;;;;1.83;1.73;;;;;;;25.83;33.34;94829.94;5113091;28;20507;-56
2022/11/05 11:53:50;;;;;;;0.50;0.47;;;;;;;25.63;32.53;94825.91;5112796;28;20919;-57
2022/11/05 11:56:20;;;;;;;0.70;0.53;;;;;;;26.04;31.46;94815.72;5112822;28;20431;-58
2022/11/05 11:58:51;;;;;;;1.00;0.50;;;;;;;25.17;32.48;94779.38;5112635;28;20471;-59
2022/11/05 12:02:06;;;;;;;1.13;1.13;;;;;;;25.53;32.40;94818.47;5112853;28;20412;-59
2022/11/05 12:05:12;;;;;;;0.90;0.90;;;;;;;24.39;33.74;94817.63;5081885;28;20424;-57
2022/11/05 12:07:51;;;;;;;0.90;0.70;;;;;;;23.55;34.15;94720.63;5111875;27;20427;-57
2022/11/05 12:10:33;;;;;;;0.83;0.83;;;;;;;24.86;32.95;94817.03;5112639;28;20438;-57
2022/11/05 12:13:27;;;;;;;2.50;0.97;;;;;;;24.99;33.12;94810.22;5111776;28;20427;-56
2022/11/05 12:16:01;;;;;;;0.43;0.43;;;;;;;24.64;32.76;94824.16;5112532;28;20443;-56
2022/11/05 12:18:39;;;;;;;4.50;1.03;;;;;;;24.24;32.53;94816.69;5112144;28;20471;-55
2022/11/05 12:21:17;;;;;;;0.60;0.43;;;;;;;24.10;33.25;94815.72;5112824;28;20428;-55
2022/11/05 12:24:30;;;;;;;0.50;0.40;;;;;;;23.77;33.92;94814.47;5112235;28;20805;-55
2022/11/05 12:27:09;;;;;;;1.63;0.93;;;;;;;24.04;33.70;94804.38;5112395;28;20471;-55
2022/11/05 12:29:51;;;;;;;0.40;0.37;;;;;;;23.47;34.50;94813.63;5112474;28;20427;-56
2022/11/05 12:32:47;;;;;;;1.73;1.33;;;;;;;23.39;34.06;94803.81;5112079;27;20438;-55
2022/11/05 12:35:30;;;;;;;0.73;0.70;;;;;;;23.18;34.29;94825.06;5112132;28;21016;-55
2022/11/05 12:38:09;;;;;;;1.17;1.17;;;;;;;23.04;35.07;94814.03;5112378;28;20778;-66